sensor_id;sensor_type;location;lat;lon;timestamp;temperature;humidity
43995;DHT22;51687;52.160;5.298;2022-11-15T00:00:51;15.20;54.60
43995;DHT22;51687;52.160;5.298;2022-11-15T00:03:21;15.20;54.80
43995;DHT22;51687;52.160;5.298;2022-11-15T00:05:48;15.20;54.80
43995;DHT22;51687;52.160;5.298;2022-11-15T00:08:15;15.20;54.90
43995;DHT22;51687;52.160;5.298;2022-11-15T00:10:43;15.10;54.90
43995;DHT22;51687;52.160;5.298;2022-11-15T00:13:19;15.10;55.00
43995;DHT22;51687;52.160;5.298;2022-11-15T00:15:46;15.10;55.30
43995;DHT22;51687;52.160;5.298;2022-11-15T00:18:14;15.10;55.40
43995;DHT22;51687;52.160;5.298;2022-11-15T00:20:41;15.10;55.60
43995;DHT22;51687;52.160;5.298;2022-11-15T00:23:08;15.10;55.90
43995;DHT22;51687;52.160;5.298;2022-11-15T00:25:35;15.10;55.60
43995;DHT22;51687;52.160;5.298;2022-11-15T00:28:03;15.10;55.90
43995;DHT22;51687;52.160;5.298;2022-11-15T00:30:30;15.10;56.30
43995;DHT22;51687;52.160;5.298;2022-11-15T00:32:57;15.10;56.40
43995;DHT22;51687;52.160;5.298;2022-11-15T00:35:27;15.10;56.30
43995;DHT22;51687;52.160;5.298;2022-11-15T00:37:54;15.10;57.00
43995;DHT22;51687;52.160;5.298;2022-11-15T00:40:21;15.20;56.50
43995;DHT22;51687;52.160;5.298;2022-11-15T00:42:48;15.20;56.40
43995;DHT22;51687;52.160;5.298;2022-11-15T00:45:15;15.20;56.50
43995;DHT22;51687;52.160;5.298;2022-11-15T00:47:44;15.10;56.40
43995;DHT22;51687;52.160;5.298;2022-11-15T00:50:12;15.20;56.40
43995;DHT22;51687;52.160;5.298;2022-11-15T00:52:41;15.10;56.70
43995;DHT22;51687;52.160;5.298;2022-11-15T00:55:16;15.10;56.90
43995;DHT22;51687;52.160;5.298;2022-11-15T00:57:43;15.20;57.50
43995;DHT22;51687;52.160;5.298;2022-11-15T01:00:10;15.20;57.40
43995;DHT22;51687;52.160;5.298;2022-11-15T01:02:37;15.30;57.10
43995;DHT22;51687;52.160;5.298;2022-11-15T01:05:05;15.30;57.30
43995;DHT22;51687;52.160;5.298;2022-11-15T01:07:32;15.30;57.20
43995;DHT22;51687;52.160;5.298;2022-11-15T01:09:59;15.30;57.50
43995;DHT22;51687;52.160;5.298;2022-11-15T01:12:25;15.30;57.30
43995;DHT22;51687;52.160;5.298;2022-11-15T01:14:52;15.30;57.40
43995;DHT22;51687;52.160;5.298;2022-11-15T01:17:19;15.30;57.50
43995;DHT22;51687;52.160;5.298;2022-11-15T01:19:46;15.30;57.60
43995;DHT22;51687;52.160;5.298;2022-11-15T01:22:13;15.30;58.10
43995;DHT22;51687;52.160;5.298;2022-11-15T01:24:39;15.30;58.00
43995;DHT22;51687;52.160;5.298;2022-11-15T01:27:06;15.20;58.10
43995;DHT22;51687;52.160;5.298;2022-11-15T01:29:33;15.30;58.20
43995;DHT22;51687;52.160;5.298;2022-11-15T01:32:00;15.30;58.30
43995;DHT22;51687;52.160;5.298;2022-11-15T01:34:27;15.30;58.30
43995;DHT22;51687;52.160;5.298;2022-11-15T01:36:54;15.20;58.50
43995;DHT22;51687;52.160;5.298;2022-11-15T01:39:20;15.20;58.60
43995;DHT22;51687;52.160;5.298;2022-11-15T01:41:47;15.20;58.80
43995;DHT22;51687;52.160;5.298;2022-11-15T01:47:06;15.10;59.20
43995;DHT22;51687;52.160;5.298;2022-11-15T01:49:35;15.10;59.20
43995;DHT22;51687;52.160;5.298;2022-11-15T01:52:08;15.10;59.60
43995;DHT22;51687;52.160;5.298;2022-11-15T01:54:36;15.10;59.80
43995;DHT22;51687;52.160;5.298;2022-11-15T01:57:07;15.20;60.00
43995;DHT22;51687;52.160;5.298;2022-11-15T01:59:41;15.10;60.00
43995;DHT22;51687;52.160;5.298;2022-11-15T02:02:09;15.20;60.20
43995;DHT22;51687;52.160;5.298;2022-11-15T02:04:41;15.20;60.20
43995;DHT22;51687;52.160;5.298;2022-11-15T02:07:10;15.20;60.40
43995;DHT22;51687;52.160;5.298;2022-11-15T02:09:38;15.20;60.20
43995;DHT22;51687;52.160;5.298;2022-11-15T02:12:07;15.20;60.50
43995;DHT22;51687;52.160;5.298;2022-11-15T02:14:36;15.20;60.60
43995;DHT22;51687;52.160;5.298;2022-11-15T02:31:21;15.20;61.40
43995;DHT22;51687;52.160;5.298;2022-11-15T02:34:14;15.20;61.50
43995;DHT22;51687;52.160;5.298;2022-11-15T02:36:50;15.20;62.00
43995;DHT22;51687;52.160;5.298;2022-11-15T02:39:34;15.20;62.00
43995;DHT22;51687;52.160;5.298;2022-11-15T02:42:05;15.20;62.00
43995;DHT22;51687;52.160;5.298;2022-11-15T02:44:55;15.20;62.00
43995;DHT22;51687;52.160;5.298;2022-11-15T02:47:24;15.30;62.30
43995;DHT22;51687;52.160;5.298;2022-11-15T02:49:59;15.30;62.30
43995;DHT22;51687;52.160;5.298;2022-11-15T02:52:27;15.30;62.70
43995;DHT22;51687;52.160;5.298;2022-11-15T02:54:58;15.30;62.90
43995;DHT22;51687;52.160;5.298;2022-11-15T02:57:52;15.30;62.90
43995;DHT22;51687;52.160;5.298;2022-11-15T03:00:19;15.30;63.00
43995;DHT22;51687;52.160;5.298;2022-11-15T03:09:12;15.30;63.40
43995;DHT22;51687;52.160;5.298;2022-11-15T03:11:47;15.30;63.40
43995;DHT22;51687;52.160;5.298;2022-11-15T03:14:38;15.30;63.50
43995;DHT22;51687;52.160;5.298;2022-11-15T03:19:53;15.20;63.80
43995;DHT22;51687;52.160;5.298;2022-11-15T03:22:24;15.20;64.20
43995;DHT22;51687;52.160;5.298;2022-11-15T03:24:56;15.20;64.30
43995;DHT22;51687;52.160;5.298;2022-11-15T03:27:26;15.20;64.40
43995;DHT22;51687;52.160;5.298;2022-11-15T03:30:05;15.30;64.70
43995;DHT22;51687;52.160;5.298;2022-11-15T03:32:37;15.30;64.80
43995;DHT22;51687;52.160;5.298;2022-11-15T03:37:57;15.20;64.90
43995;DHT22;51687;52.160;5.298;2022-11-15T03:40:36;15.20;65.10
43995;DHT22;51687;52.160;5.298;2022-11-15T03:43:13;15.20;65.20
43995;DHT22;51687;52.160;5.298;2022-11-15T03:45:54;15.20;65.30
43995;DHT22;51687;52.160;5.298;2022-11-15T03:48:25;15.20;65.80
43995;DHT22;51687;52.160;5.298;2022-11-15T03:50:53;15.20;65.70
43995;DHT22;51687;52.160;5.298;2022-11-15T03:53:21;15.20;65.70
43995;DHT22;51687;52.160;5.298;2022-11-15T03:55:47;15.10;65.80
43995;DHT22;51687;52.160;5.298;2022-11-15T03:58:14;15.20;66.00
43995;DHT22;51687;52.160;5.298;2022-11-15T04:00:41;15.10;66.00
43995;DHT22;51687;52.160;5.298;2022-11-15T04:03:07;15.10;66.20
43995;DHT22;51687;52.160;5.298;2022-11-15T04:05:34;15.10;66.30
43995;DHT22;51687;52.160;5.298;2022-11-15T04:08:01;15.10;66.60
43995;DHT22;51687;52.160;5.298;2022-11-15T04:10:27;15.10;66.70
43995;DHT22;51687;52.160;5.298;2022-11-15T04:12:54;15.10;66.90
43995;DHT22;51687;52.160;5.298;2022-11-15T04:15:23;15.10;67.10
43995;DHT22;51687;52.160;5.298;2022-11-15T04:17:54;15.10;67.00
43995;DHT22;51687;52.160;5.298;2022-11-15T04:20:23;15.10;67.20
43995;DHT22;51687;52.160;5.298;2022-11-15T04:23:10;15.10;67.30
43995;DHT22;51687;52.160;5.298;2022-11-15T04:26:02;15.10;67.40
43995;DHT22;51687;52.160;5.298;2022-11-15T04:28:30;15.20;67.10
43995;DHT22;51687;52.160;5.298;2022-11-15T04:30:57;15.20;67.20
43995;DHT22;51687;52.160;5.298;2022-11-15T04:33:24;15.20;67.30
43995;DHT22;51687;52.160;5.298;2022-11-15T04:35:51;15.20;67.30
43995;DHT22;51687;52.160;5.298;2022-11-15T04:38:36;15.20;67.30
43995;DHT22;51687;52.160;5.298;2022-11-15T04:41:03;15.30;67.40
43995;DHT22;51687;52.160;5.298;2022-11-15T04:43:30;15.30;67.20
43995;DHT22;51687;52.160;5.298;2022-11-15T04:45:58;15.30;67.30
43995;DHT22;51687;52.160;5.298;2022-11-15T04:48:24;15.30;67.50
43995;DHT22;51687;52.160;5.298;2022-11-15T04:50:51;15.30;67.50
43995;DHT22;51687;52.160;5.298;2022-11-15T04:53:18;15.30;67.50
43995;DHT22;51687;52.160;5.298;2022-11-15T04:55:46;15.30;67.60
43995;DHT22;51687;52.160;5.298;2022-11-15T04:58:13;15.40;67.60
43995;DHT22;51687;52.160;5.298;2022-11-15T05:00:40;15.40;67.60
43995;DHT22;51687;52.160;5.298;2022-11-15T05:03:09;15.40;67.50
43995;DHT22;51687;52.160;5.298;2022-11-15T05:05:57;15.40;67.60
43995;DHT22;51687;52.160;5.298;2022-11-15T05:08:24;15.40;67.60
43995;DHT22;51687;52.160;5.298;2022-11-15T05:10:50;15.50;67.70
43995;DHT22;51687;52.160;5.298;2022-11-15T05:13:17;15.50;67.60
43995;DHT22;51687;52.160;5.298;2022-11-15T05:15:44;15.40;67.70
43995;DHT22;51687;52.160;5.298;2022-11-15T05:18:11;15.40;67.70
43995;DHT22;51687;52.160;5.298;2022-11-15T05:20:38;15.40;67.80
43995;DHT22;51687;52.160;5.298;2022-11-15T05:23:04;15.40;68.50
43995;DHT22;51687;52.160;5.298;2022-11-15T05:25:31;15.40;68.00
43995;DHT22;51687;52.160;5.298;2022-11-15T05:27:58;15.30;68.00
43995;DHT22;51687;52.160;5.298;2022-11-15T05:30:25;15.30;68.20
43995;DHT22;51687;52.160;5.298;2022-11-15T05:32:51;15.30;68.30
43995;DHT22;51687;52.160;5.298;2022-11-15T05:35:40;15.30;68.40
43995;DHT22;51687;52.160;5.298;2022-11-15T05:38:08;15.30;68.70
43995;DHT22;51687;52.160;5.298;2022-11-15T05:40:35;15.40;68.50
43995;DHT22;51687;52.160;5.298;2022-11-15T05:43:03;15.40;68.70
43995;DHT22;51687;52.160;5.298;2022-11-15T05:45:31;15.40;68.70
43995;DHT22;51687;52.160;5.298;2022-11-15T05:47:58;15.40;68.80
43995;DHT22;51687;52.160;5.298;2022-11-15T05:50:26;15.40;68.50
43995;DHT22;51687;52.160;5.298;2022-11-15T05:52:54;15.40;68.60
43995;DHT22;51687;52.160;5.298;2022-11-15T05:55:26;15.40;68.60
43995;DHT22;51687;52.160;5.298;2022-11-15T05:57:53;15.40;68.70
43995;DHT22;51687;52.160;5.298;2022-11-15T06:00:20;15.40;69.00
43995;DHT22;51687;52.160;5.298;2022-11-15T06:02:46;15.40;69.10
43995;DHT22;51687;52.160;5.298;2022-11-15T06:05:13;15.40;69.00
43995;DHT22;51687;52.160;5.298;2022-11-15T06:07:40;15.40;69.00
43995;DHT22;51687;52.160;5.298;2022-11-15T06:10:07;15.40;69.10
43995;DHT22;51687;52.160;5.298;2022-11-15T06:12:34;15.40;69.20
43995;DHT22;51687;52.160;5.298;2022-11-15T06:15:01;15.40;69.60
43995;DHT22;51687;52.160;5.298;2022-11-15T06:17:28;15.40;69.60
43995;DHT22;51687;52.160;5.298;2022-11-15T06:19:55;15.50;69.70
43995;DHT22;51687;52.160;5.298;2022-11-15T06:22:22;15.50;69.50
43995;DHT22;51687;52.160;5.298;2022-11-15T06:24:49;15.60;69.30
43995;DHT22;51687;52.160;5.298;2022-11-15T06:27:16;15.60;69.10
43995;DHT22;51687;52.160;5.298;2022-11-15T06:29:42;15.70;69.10
43995;DHT22;51687;52.160;5.298;2022-11-15T06:32:10;15.70;68.80
43995;DHT22;51687;52.160;5.298;2022-11-15T06:34:37;15.70;68.80
43995;DHT22;51687;52.160;5.298;2022-11-15T06:37:04;15.80;68.80
43995;DHT22;51687;52.160;5.298;2022-11-15T06:39:30;15.80;68.70
43995;DHT22;51687;52.160;5.298;2022-11-15T06:41:57;15.90;68.60
43995;DHT22;51687;52.160;5.298;2022-11-15T06:44:24;15.90;68.70
43995;DHT22;51687;52.160;5.298;2022-11-15T06:46:50;16.00;68.40
43995;DHT22;51687;52.160;5.298;2022-11-15T06:49:17;16.00;68.20
43995;DHT22;51687;52.160;5.298;2022-11-15T06:51:44;16.00;68.00
43995;DHT22;51687;52.160;5.298;2022-11-15T06:54:11;16.00;67.80
43995;DHT22;51687;52.160;5.298;2022-11-15T06:56:37;16.10;67.60
43995;DHT22;51687;52.160;5.298;2022-11-15T06:59:04;16.10;67.50
43995;DHT22;51687;52.160;5.298;2022-11-15T07:01:31;16.20;67.50
43995;DHT22;51687;52.160;5.298;2022-11-15T07:03:58;16.20;67.40
43995;DHT22;51687;52.160;5.298;2022-11-15T07:06:25;16.20;67.20
43995;DHT22;51687;52.160;5.298;2022-11-15T07:08:51;16.20;67.10
43995;DHT22;51687;52.160;5.298;2022-11-15T07:11:18;16.30;67.00
43995;DHT22;51687;52.160;5.298;2022-11-15T07:13:45;16.20;67.00
43995;DHT22;51687;52.160;5.298;2022-11-15T07:16:12;16.20;66.90
43995;DHT22;51687;52.160;5.298;2022-11-15T07:18:40;16.30;67.00
43995;DHT22;51687;52.160;5.298;2022-11-15T07:21:09;16.30;67.00
43995;DHT22;51687;52.160;5.298;2022-11-15T07:23:37;16.30;66.90
43995;DHT22;51687;52.160;5.298;2022-11-15T07:26:08;16.30;66.70
43995;DHT22;51687;52.160;5.298;2022-11-15T07:28:35;16.30;66.70
43995;DHT22;51687;52.160;5.298;2022-11-15T07:31:07;16.30;66.50
43995;DHT22;51687;52.160;5.298;2022-11-15T07:33:34;16.30;66.40
43995;DHT22;51687;52.160;5.298;2022-11-15T07:36:03;16.30;66.50
43995;DHT22;51687;52.160;5.298;2022-11-15T07:38:30;16.20;66.60
43995;DHT22;51687;52.160;5.298;2022-11-15T07:40:58;16.10;66.50
43995;DHT22;51687;52.160;5.298;2022-11-15T07:43:25;16.00;66.90
43995;DHT22;51687;52.160;5.298;2022-11-15T07:45:54;16.00;67.30
43995;DHT22;51687;52.160;5.298;2022-11-15T07:48:25;15.90;67.50
43995;DHT22;51687;52.160;5.298;2022-11-15T07:51:14;15.80;67.80
43995;DHT22;51687;52.160;5.298;2022-11-15T07:53:42;15.80;68.20
43995;DHT22;51687;52.160;5.298;2022-11-15T07:56:10;15.70;68.40
43995;DHT22;51687;52.160;5.298;2022-11-15T07:58:37;15.70;68.60
43995;DHT22;51687;52.160;5.298;2022-11-15T08:01:04;15.60;68.80
43995;DHT22;51687;52.160;5.298;2022-11-15T08:03:32;15.60;69.00
43995;DHT22;51687;52.160;5.298;2022-11-15T08:06:00;15.50;69.10
43995;DHT22;51687;52.160;5.298;2022-11-15T08:08:27;15.50;69.30
43995;DHT22;51687;52.160;5.298;2022-11-15T08:10:53;15.50;69.50
43995;DHT22;51687;52.160;5.298;2022-11-15T08:13:20;15.50;69.60
43995;DHT22;51687;52.160;5.298;2022-11-15T08:15:48;15.40;69.70
43995;DHT22;51687;52.160;5.298;2022-11-15T08:18:21;15.50;69.70
43995;DHT22;51687;52.160;5.298;2022-11-15T08:20:49;15.40;69.60
43995;DHT22;51687;52.160;5.298;2022-11-15T08:23:16;15.40;69.70
43995;DHT22;51687;52.160;5.298;2022-11-15T08:25:42;15.40;69.80
43995;DHT22;51687;52.160;5.298;2022-11-15T08:28:10;15.40;69.80
43995;DHT22;51687;52.160;5.298;2022-11-15T08:30:38;15.30;69.80
43995;DHT22;51687;52.160;5.298;2022-11-15T08:33:11;15.30;69.90
43995;DHT22;51687;52.160;5.298;2022-11-15T08:35:39;15.30;70.00
43995;DHT22;51687;52.160;5.298;2022-11-15T08:38:07;15.30;70.00
43995;DHT22;51687;52.160;5.298;2022-11-15T08:40:33;15.30;70.00
43995;DHT22;51687;52.160;5.298;2022-11-15T08:43:00;15.30;70.10
43995;DHT22;51687;52.160;5.298;2022-11-15T08:45:30;15.30;70.10
43995;DHT22;51687;52.160;5.298;2022-11-15T08:47:57;15.30;70.10
43995;DHT22;51687;52.160;5.298;2022-11-15T08:50:24;15.30;69.90
43995;DHT22;51687;52.160;5.298;2022-11-15T08:52:51;15.30;69.90
43995;DHT22;51687;52.160;5.298;2022-11-15T08:55:17;15.20;70.00
43995;DHT22;51687;52.160;5.298;2022-11-15T08:57:56;15.20;70.10
43995;DHT22;51687;52.160;5.298;2022-11-15T09:00:23;15.20;70.70
43995;DHT22;51687;52.160;5.298;2022-11-15T09:02:50;15.20;70.20
43995;DHT22;51687;52.160;5.298;2022-11-15T09:05:17;15.20;70.30
43995;DHT22;51687;52.160;5.298;2022-11-15T09:07:45;15.20;70.40
43995;DHT22;51687;52.160;5.298;2022-11-15T09:10:11;15.20;70.40
43995;DHT22;51687;52.160;5.298;2022-11-15T09:12:38;15.20;70.60
43995;DHT22;51687;52.160;5.298;2022-11-15T09:15:06;15.20;70.50
43995;DHT22;51687;52.160;5.298;2022-11-15T09:17:35;15.20;70.60
43995;DHT22;51687;52.160;5.298;2022-11-15T09:20:02;15.20;70.50
43995;DHT22;51687;52.160;5.298;2022-11-15T09:22:28;15.20;70.50
43995;DHT22;51687;52.160;5.298;2022-11-15T09:24:55;15.20;70.50
43995;DHT22;51687;52.160;5.298;2022-11-15T09:27:31;15.20;70.40
43995;DHT22;51687;52.160;5.298;2022-11-15T09:29:58;15.20;70.50
43995;DHT22;51687;52.160;5.298;2022-11-15T09:32:28;15.20;70.40
43995;DHT22;51687;52.160;5.298;2022-11-15T09:35:01;15.30;70.10
43995;DHT22;51687;52.160;5.298;2022-11-15T09:37:31;15.30;69.70
43995;DHT22;51687;52.160;5.298;2022-11-15T09:39:58;15.30;69.40
43995;DHT22;51687;52.160;5.298;2022-11-15T09:50:57;15.20;68.90
43995;DHT22;51687;52.160;5.298;2022-11-15T09:53:39;15.30;69.00
43995;DHT22;51687;52.160;5.298;2022-11-15T09:56:30;15.30;69.10
43995;DHT22;51687;52.160;5.298;2022-11-15T10:02:14;15.30;68.50
43995;DHT22;51687;52.160;5.298;2022-11-15T10:04:45;15.30;67.90
43995;DHT22;51687;52.160;5.298;2022-11-15T10:07:27;15.20;67.70
43995;DHT22;51687;52.160;5.298;2022-11-15T10:10:00;15.30;67.70
43995;DHT22;51687;52.160;5.298;2022-11-15T10:12:28;15.30;67.70
43995;DHT22;51687;52.160;5.298;2022-11-15T10:15:02;15.30;67.20
43995;DHT22;51687;52.160;5.298;2022-11-15T10:20:34;15.30;67.50
43995;DHT22;51687;52.160;5.298;2022-11-15T10:23:10;15.40;67.30
43995;DHT22;51687;52.160;5.298;2022-11-15T10:25:37;15.40;66.60
43995;DHT22;51687;52.160;5.298;2022-11-15T10:28:17;15.30;65.90
43995;DHT22;51687;52.160;5.298;2022-11-15T10:30:56;15.30;65.60
43995;DHT22;51687;52.160;5.298;2022-11-15T10:46:34;15.40;64.60
43995;DHT22;51687;52.160;5.298;2022-11-15T10:49:22;15.30;64.20
43995;DHT22;51687;52.160;5.298;2022-11-15T10:52:15;15.40;64.00
43995;DHT22;51687;52.160;5.298;2022-11-15T10:57:14;15.40;64.60
43995;DHT22;51687;52.160;5.298;2022-11-15T10:59:49;15.40;64.50
43995;DHT22;51687;52.160;5.298;2022-11-15T11:04:59;15.50;64.20
43995;DHT22;51687;52.160;5.298;2022-11-15T11:07:29;15.50;63.80
43995;DHT22;51687;52.160;5.298;2022-11-15T11:10:05;15.50;63.70
43995;DHT22;51687;52.160;5.298;2022-11-15T11:13:14;15.50;62.80
43995;DHT22;51687;52.160;5.298;2022-11-15T11:15:44;15.60;62.80
43995;DHT22;51687;52.160;5.298;2022-11-15T11:18:27;15.60;62.40
43995;DHT22;51687;52.160;5.298;2022-11-15T11:21:01;15.70;62.10
43995;DHT22;51687;52.160;5.298;2022-11-15T11:23:52;15.70;61.60
43995;DHT22;51687;52.160;5.298;2022-11-15T11:29:31;15.80;62.10
43995;DHT22;51687;52.160;5.298;2022-11-15T11:32:23;15.80;61.10
43995;DHT22;51687;52.160;5.298;2022-11-15T11:40:32;15.90;61.00
43995;DHT22;51687;52.160;5.298;2022-11-15T11:43:28;16.00;60.70
43995;DHT22;51687;52.160;5.298;2022-11-15T11:51:42;16.10;59.50
43995;DHT22;51687;52.160;5.298;2022-11-15T11:56:46;16.20;59.80
43995;DHT22;51687;52.160;5.298;2022-11-15T12:01:45;16.30;58.90
43995;DHT22;51687;52.160;5.298;2022-11-15T12:04:27;16.40;58.40
43995;DHT22;51687;52.160;5.298;2022-11-15T12:12:18;16.50;57.70
43995;DHT22;51687;52.160;5.298;2022-11-15T12:14:56;16.60;57.70
43995;DHT22;51687;52.160;5.298;2022-11-15T12:17:28;16.60;57.20
43995;DHT22;51687;52.160;5.298;2022-11-15T12:20:00;16.70;57.20
43995;DHT22;51687;52.160;5.298;2022-11-15T12:23:23;16.70;56.60
43995;DHT22;51687;52.160;5.298;2022-11-15T12:31:26;16.90;55.70
43995;DHT22;51687;52.160;5.298;2022-11-15T12:33:57;16.90;57.70
43995;DHT22;51687;52.160;5.298;2022-11-15T12:36:42;16.90;56.20
43995;DHT22;51687;52.160;5.298;2022-11-15T12:39:15;16.90;55.50
43995;DHT22;51687;52.160;5.298;2022-11-15T12:41:44;17.00;55.10
43995;DHT22;51687;52.160;5.298;2022-11-15T12:52:06;17.00;55.30
43995;DHT22;51687;52.160;5.298;2022-11-15T13:13:02;17.10;53.60
43995;DHT22;51687;52.160;5.298;2022-11-15T13:15:33;17.10;53.60
43995;DHT22;51687;52.160;5.298;2022-11-15T13:20:49;17.10;56.70
43995;DHT22;51687;52.160;5.298;2022-11-15T13:23:16;17.10;54.50
43995;DHT22;51687;52.160;5.298;2022-11-15T13:30:53;17.10;54.00
43995;DHT22;51687;52.160;5.298;2022-11-15T13:35:50;17.10;53.80
43995;DHT22;51687;52.160;5.298;2022-11-15T13:38:37;17.10;54.50
43995;DHT22;51687;52.160;5.298;2022-11-15T13:41:34;17.10;55.50
43995;DHT22;51687;52.160;5.298;2022-11-15T13:44:02;17.00;54.50
43995;DHT22;51687;52.160;5.298;2022-11-15T13:46:33;17.00;54.10
43995;DHT22;51687;52.160;5.298;2022-11-15T13:49:05;17.00;54.60
43995;DHT22;51687;52.160;5.298;2022-11-15T13:51:50;17.00;54.40
43995;DHT22;51687;52.160;5.298;2022-11-15T13:54:28;17.00;53.80
43995;DHT22;51687;52.160;5.298;2022-11-15T13:57:11;17.00;54.10
43995;DHT22;51687;52.160;5.298;2022-11-15T13:59:55;17.00;54.70
43995;DHT22;51687;52.160;5.298;2022-11-15T14:02:34;17.00;54.50
43995;DHT22;51687;52.160;5.298;2022-11-15T14:05:16;17.00;54.20
43995;DHT22;51687;52.160;5.298;2022-11-15T14:07:58;17.00;54.30
43995;DHT22;51687;52.160;5.298;2022-11-15T14:10:39;16.90;54.20
43995;DHT22;51687;52.160;5.298;2022-11-15T14:13:26;16.90;54.20
43995;DHT22;51687;52.160;5.298;2022-11-15T14:15:53;16.90;54.00
43995;DHT22;51687;52.160;5.298;2022-11-15T14:21:09;16.90;54.40
43995;DHT22;51687;52.160;5.298;2022-11-15T14:23:36;16.90;54.30
43995;DHT22;51687;52.160;5.298;2022-11-15T14:26:03;16.90;54.40
43995;DHT22;51687;52.160;5.298;2022-11-15T14:28:37;16.80;54.20
43995;DHT22;51687;52.160;5.298;2022-11-15T14:31:11;16.80;54.10
43995;DHT22;51687;52.160;5.298;2022-11-15T14:33:39;16.80;54.50
43995;DHT22;51687;52.160;5.298;2022-11-15T14:36:13;16.80;54.30
43995;DHT22;51687;52.160;5.298;2022-11-15T14:38:41;16.80;54.40
43995;DHT22;51687;52.160;5.298;2022-11-15T14:41:21;16.80;54.40
43995;DHT22;51687;52.160;5.298;2022-11-15T14:43:50;16.80;54.20
43995;DHT22;51687;52.160;5.298;2022-11-15T14:46:17;16.90;54.30
43995;DHT22;51687;52.160;5.298;2022-11-15T14:48:44;16.90;54.30
43995;DHT22;51687;52.160;5.298;2022-11-15T14:51:16;16.90;54.00
43995;DHT22;51687;52.160;5.298;2022-11-15T14:53:44;16.90;53.70
43995;DHT22;51687;52.160;5.298;2022-11-15T14:56:11;16.90;54.20
43995;DHT22;51687;52.160;5.298;2022-11-15T14:58:38;16.90;55.10
43995;DHT22;51687;52.160;5.298;2022-11-15T15:01:24;16.90;54.40
43995;DHT22;51687;52.160;5.298;2022-11-15T15:03:52;16.90;53.50
43995;DHT22;51687;52.160;5.298;2022-11-15T15:06:22;16.90;54.00
43995;DHT22;51687;52.160;5.298;2022-11-15T15:08:49;16.90;53.80
43995;DHT22;51687;52.160;5.298;2022-11-15T15:11:25;16.90;53.80
43995;DHT22;51687;52.160;5.298;2022-11-15T15:13:53;16.90;53.90
43995;DHT22;51687;52.160;5.298;2022-11-15T15:16:24;16.90;53.50
43995;DHT22;51687;52.160;5.298;2022-11-15T15:18:51;16.90;52.90
43995;DHT22;51687;52.160;5.298;2022-11-15T15:21:23;16.90;53.30
43995;DHT22;51687;52.160;5.298;2022-11-15T15:23:51;16.90;53.30
43995;DHT22;51687;52.160;5.298;2022-11-15T15:26:19;16.90;53.10
43995;DHT22;51687;52.160;5.298;2022-11-15T15:28:48;16.90;53.50
43995;DHT22;51687;52.160;5.298;2022-11-15T15:31:18;16.80;53.00
43995;DHT22;51687;52.160;5.298;2022-11-15T15:33:45;16.80;52.80
43995;DHT22;51687;52.160;5.298;2022-11-15T15:36:13;16.80;52.70
43995;DHT22;51687;52.160;5.298;2022-11-15T15:38:40;16.80;52.80
43995;DHT22;51687;52.160;5.298;2022-11-15T15:41:11;16.80;53.30
43995;DHT22;51687;52.160;5.298;2022-11-15T15:43:39;16.70;52.50
43995;DHT22;51687;52.160;5.298;2022-11-15T15:46:16;16.70;53.10
43995;DHT22;51687;52.160;5.298;2022-11-15T15:48:44;16.70;52.70
43995;DHT22;51687;52.160;5.298;2022-11-15T15:51:11;16.80;52.20
43995;DHT22;51687;52.160;5.298;2022-11-15T15:53:46;16.70;52.60
43995;DHT22;51687;52.160;5.298;2022-11-15T15:56:12;16.70;52.90
43995;DHT22;51687;52.160;5.298;2022-11-15T15:58:39;16.70;52.80
43995;DHT22;51687;52.160;5.298;2022-11-15T16:01:06;16.70;52.40
43995;DHT22;51687;52.160;5.298;2022-11-15T16:03:33;16.70;52.40
43995;DHT22;51687;52.160;5.298;2022-11-15T16:05:59;16.70;52.40
43995;DHT22;51687;52.160;5.298;2022-11-15T16:08:27;16.70;52.60
43995;DHT22;51687;52.160;5.298;2022-11-15T16:11:16;16.70;53.30
43995;DHT22;51687;52.160;5.298;2022-11-15T16:13:42;16.70;54.00
43995;DHT22;51687;52.160;5.298;2022-11-15T16:16:12;16.80;53.00
43995;DHT22;51687;52.160;5.298;2022-11-15T16:18:39;16.80;52.20
43995;DHT22;51687;52.160;5.298;2022-11-15T16:21:07;16.80;51.70
43995;DHT22;51687;52.160;5.298;2022-11-15T16:23:34;16.70;51.70
43995;DHT22;51687;52.160;5.298;2022-11-15T16:26:01;16.80;51.80
43995;DHT22;51687;52.160;5.298;2022-11-15T16:28:31;16.70;51.60
43995;DHT22;51687;52.160;5.298;2022-11-15T16:33:31;16.70;52.90
43995;DHT22;51687;52.160;5.298;2022-11-15T16:35:58;16.80;52.00
43995;DHT22;51687;52.160;5.298;2022-11-15T16:38:25;16.70;52.10
43995;DHT22;51687;52.160;5.298;2022-11-15T16:40:52;16.70;52.60
43995;DHT22;51687;52.160;5.298;2022-11-15T16:43:19;16.70;52.20
43995;DHT22;51687;52.160;5.298;2022-11-15T16:45:45;16.70;53.30
43995;DHT22;51687;52.160;5.298;2022-11-15T16:48:23;16.70;52.30
43995;DHT22;51687;52.160;5.298;2022-11-15T16:50:54;16.70;52.50
43995;DHT22;51687;52.160;5.298;2022-11-15T16:53:22;16.70;54.10
43995;DHT22;51687;52.160;5.298;2022-11-15T16:55:49;16.70;53.90
43995;DHT22;51687;52.160;5.298;2022-11-15T16:58:16;16.80;52.70
43995;DHT22;51687;52.160;5.298;2022-11-15T17:00:42;16.70;52.90
43995;DHT22;51687;52.160;5.298;2022-11-15T17:03:09;16.70;53.40
43995;DHT22;51687;52.160;5.298;2022-11-15T17:05:36;16.70;54.00
43995;DHT22;51687;52.160;5.298;2022-11-15T17:08:03;16.70;54.80
43995;DHT22;51687;52.160;5.298;2022-11-15T17:10:30;16.70;55.10
43995;DHT22;51687;52.160;5.298;2022-11-15T17:12:57;16.70;55.60
43995;DHT22;51687;52.160;5.298;2022-11-15T17:15:23;16.70;55.00
43995;DHT22;51687;52.160;5.298;2022-11-15T17:17:54;16.70;55.80
43995;DHT22;51687;52.160;5.298;2022-11-15T17:20:23;16.70;56.50
43995;DHT22;51687;52.160;5.298;2022-11-15T17:22:50;16.70;57.30
43995;DHT22;51687;52.160;5.298;2022-11-15T17:25:18;16.70;57.60
43995;DHT22;51687;52.160;5.298;2022-11-15T17:27:45;16.70;57.90
43995;DHT22;51687;52.160;5.298;2022-11-15T17:30:13;16.70;58.40
43995;DHT22;51687;52.160;5.298;2022-11-15T17:32:45;16.70;58.80
43995;DHT22;51687;52.160;5.298;2022-11-15T17:35:13;16.70;59.20
43995;DHT22;51687;52.160;5.298;2022-11-15T17:37:42;16.70;59.80
43995;DHT22;51687;52.160;5.298;2022-11-15T17:40:09;16.70;60.20
43995;DHT22;51687;52.160;5.298;2022-11-15T17:42:36;16.70;60.20
43995;DHT22;51687;52.160;5.298;2022-11-15T17:45:03;16.70;60.30
43995;DHT22;51687;52.160;5.298;2022-11-15T17:47:36;16.70;60.60
43995;DHT22;51687;52.160;5.298;2022-11-15T17:50:03;16.70;60.80
43995;DHT22;51687;52.160;5.298;2022-11-15T17:52:30;16.70;61.20
43995;DHT22;51687;52.160;5.298;2022-11-15T17:54:57;16.70;61.50
43995;DHT22;51687;52.160;5.298;2022-11-15T17:57:23;16.60;61.70
43995;DHT22;51687;52.160;5.298;2022-11-15T17:59:50;16.60;61.80
43995;DHT22;51687;52.160;5.298;2022-11-15T18:02:17;16.60;62.20
43995;DHT22;51687;52.160;5.298;2022-11-15T18:04:45;16.60;62.20